Anthony, Pennsylvania
Current Conditions -  °F | °C
As of 7:54 PM on Friday 21 Nov 2014 (Local Time) from KIPT Reporting Station
Clear Clear  
Wind Chill: 18°   Ceiling: Unl
Heat Index: 27°   Visibility: 10mi
Dew Point: 10°   Wind: 9mph
Humidity: 49%   Direction: 260°W
Pressure: 30.48"   Gusts: NA
Location:  41.1183°N, 76.7254°W
Report Text: KIPT 220054Z 26008KT 10SM CLR M03/M12 A3048 RMK AO2 SLP330 T10281122
Loading
Personal Weather Stations






























Interactive Weather Map New forecast layout! Learn more

10-Day Weather Forecast

Advertisements
Track Severe Weather on mobile